sensor_id;sensor_type;location;lat;lon;timestamp;P1;durP1;ratioP1;P2;durP2;ratioP2
9918;SDS011;4998;51.024;13.828;2024-03-22T00:00:44;5.60;;;5.07;;
9918;SDS011;4998;51.024;13.828;2024-03-22T00:03:10;4.97;;;4.57;;
9918;SDS011;4998;51.024;13.828;2024-03-22T00:05:37;5.23;;;4.73;;
9918;SDS011;4998;51.024;13.828;2024-03-22T00:08:04;5.40;;;4.90;;
9918;SDS011;4998;51.024;13.828;2024-03-22T00:10:31;5.50;;;5.00;;
9918;SDS011;4998;51.024;13.828;2024-03-22T00:12:57;7.33;;;6.10;;
9918;SDS011;4998;51.024;13.828;2024-03-22T00:15:24;5.60;;;5.10;;
9918;SDS011;4998;51.024;13.828;2024-03-22T00:17:52;6.40;;;5.00;;
9918;SDS011;4998;51.024;13.828;2024-03-22T00:20:19;5.63;;;5.03;;
9918;SDS011;4998;51.024;13.828;2024-03-22T00:22:45;7.67;;;6.03;;
9918;SDS011;4998;51.024;13.828;2024-03-22T00:25:12;7.20;;;6.23;;
9918;SDS011;4998;51.024;13.828;2024-03-22T00:27:38;7.50;;;5.40;;
9918;SDS011;4998;51.024;13.828;2024-03-22T00:30:05;6.20;;;5.60;;
9918;SDS011;4998;51.024;13.828;2024-03-22T00:32:32;8.57;;;7.00;;
9918;SDS011;4998;51.024;13.828;2024-03-22T00:35:00;7.90;;;6.40;;
9918;SDS011;4998;51.024;13.828;2024-03-22T00:37:27;7.43;;;6.33;;
9918;SDS011;4998;51.024;13.828;2024-03-22T00:39:54;8.90;;;6.90;;
9918;SDS011;4998;51.024;13.828;2024-03-22T00:42:20;8.80;;;7.30;;
9918;SDS011;4998;51.024;13.828;2024-03-22T00:44:47;7.47;;;6.40;;
9918;SDS011;4998;51.024;13.828;2024-03-22T00:47:13;8.63;;;7.00;;
9918;SDS011;4998;51.024;13.828;2024-03-22T00:49:40;9.97;;;7.53;;
9918;SDS011;4998;51.024;13.828;2024-03-22T00:52:08;8.60;;;7.27;;
9918;SDS011;4998;51.024;13.828;2024-03-22T00:54:35;8.30;;;7.40;;
9918;SDS011;4998;51.024;13.828;2024-03-22T00:57:04;11.83;;;8.07;;
9918;SDS011;4998;51.024;13.828;2024-03-22T00:59:32;10.97;;;7.90;;
9918;SDS011;4998;51.024;13.828;2024-03-22T01:01:58;9.30;;;7.40;;
9918;SDS011;4998;51.024;13.828;2024-03-22T01:04:25;9.63;;;7.83;;
9918;SDS011;4998;51.024;13.828;2024-03-22T01:06:51;9.37;;;7.50;;
9918;SDS011;4998;51.024;13.828;2024-03-22T01:09:20;8.50;;;7.67;;
9918;SDS011;4998;51.024;13.828;2024-03-22T01:11:46;9.00;;;7.97;;
9918;SDS011;4998;51.024;13.828;2024-03-22T01:14:13;9.27;;;7.23;;
9918;SDS011;4998;51.024;13.828;2024-03-22T01:16:39;11.97;;;7.40;;
9918;SDS011;4998;51.024;13.828;2024-03-22T01:19:07;8.33;;;7.53;;
9918;SDS011;4998;51.024;13.828;2024-03-22T01:21:33;9.47;;;8.10;;
9918;SDS011;4998;51.024;13.828;2024-03-22T01:24:01;10.27;;;7.40;;
9918;SDS011;4998;51.024;13.828;2024-03-22T01:26:28;8.20;;;7.20;;
9918;SDS011;4998;51.024;13.828;2024-03-22T01:28:55;8.40;;;6.70;;
9918;SDS011;4998;51.024;13.828;2024-03-22T01:31:21;7.87;;;6.90;;
9918;SDS011;4998;51.024;13.828;2024-03-22T01:33:48;9.00;;;7.33;;
9918;SDS011;4998;51.024;13.828;2024-03-22T01:36:14;7.30;;;6.57;;
9918;SDS011;4998;51.024;13.828;2024-03-22T01:38:41;9.23;;;7.20;;
9918;SDS011;4998;51.024;13.828;2024-03-22T01:41:07;9.87;;;8.00;;
9918;SDS011;4998;51.024;13.828;2024-03-22T01:43:36;10.07;;;7.70;;
9918;SDS011;4998;51.024;13.828;2024-03-22T01:46:02;9.97;;;7.43;;
9918;SDS011;4998;51.024;13.828;2024-03-22T01:48:30;8.17;;;6.83;;
9918;SDS011;4998;51.024;13.828;2024-03-22T01:50:57;7.90;;;7.07;;
9918;SDS011;4998;51.024;13.828;2024-03-22T01:53:24;7.90;;;6.60;;
9918;SDS011;4998;51.024;13.828;2024-03-22T01:55:50;10.50;;;7.50;;
9918;SDS011;4998;51.024;13.828;2024-03-22T01:58:17;7.30;;;6.33;;
9918;SDS011;4998;51.024;13.828;2024-03-22T02:00:45;11.73;;;5.97;;
9918;SDS011;4998;51.024;13.828;2024-03-22T02:03:12;7.97;;;6.73;;
9918;SDS011;4998;51.024;13.828;2024-03-22T02:05:38;8.90;;;6.97;;
9918;SDS011;4998;51.024;13.828;2024-03-22T02:08:05;7.90;;;7.10;;
9918;SDS011;4998;51.024;13.828;2024-03-22T02:10:31;8.17;;;7.33;;
9918;SDS011;4998;51.024;13.828;2024-03-22T02:12:59;9.10;;;7.07;;
9918;SDS011;4998;51.024;13.828;2024-03-22T02:15:25;9.17;;;6.73;;
9918;SDS011;4998;51.024;13.828;2024-03-22T02:17:53;8.33;;;6.77;;
9918;SDS011;4998;51.024;13.828;2024-03-22T02:20:19;8.57;;;6.97;;
9918;SDS011;4998;51.024;13.828;2024-03-22T02:22:46;7.30;;;6.50;;
9918;SDS011;4998;51.024;13.828;2024-03-22T02:25:14;7.77;;;6.57;;
9918;SDS011;4998;51.024;13.828;2024-03-22T02:27:41;9.07;;;7.17;;
9918;SDS011;4998;51.024;13.828;2024-03-22T02:30:08;8.73;;;7.37;;
9918;SDS011;4998;51.024;13.828;2024-03-22T02:32:36;10.33;;;7.23;;
9918;SDS011;4998;51.024;13.828;2024-03-22T02:35:02;8.33;;;6.73;;
9918;SDS011;4998;51.024;13.828;2024-03-22T02:37:30;10.10;;;6.97;;
9918;SDS011;4998;51.024;13.828;2024-03-22T02:39:57;8.50;;;7.20;;
9918;SDS011;4998;51.024;13.828;2024-03-22T02:42:25;8.40;;;7.00;;
9918;SDS011;4998;51.024;13.828;2024-03-22T02:44:51;8.80;;;7.30;;
9918;SDS011;4998;51.024;13.828;2024-03-22T02:47:19;9.47;;;7.90;;
9918;SDS011;4998;51.024;13.828;2024-03-22T02:49:45;9.87;;;7.17;;
9918;SDS011;4998;51.024;13.828;2024-03-22T02:52:12;8.40;;;7.10;;
9918;SDS011;4998;51.024;13.828;2024-03-22T02:54:38;9.60;;;7.27;;
9918;SDS011;4998;51.024;13.828;2024-03-22T02:57:05;10.00;;;7.40;;
9918;SDS011;4998;51.024;13.828;2024-03-22T02:59:33;7.83;;;6.70;;
9918;SDS011;4998;51.024;13.828;2024-03-22T03:01:59;8.60;;;7.70;;
9918;SDS011;4998;51.024;13.828;2024-03-22T03:04:26;9.40;;;6.70;;
9918;SDS011;4998;51.024;13.828;2024-03-22T03:06:52;11.30;;;8.50;;
9918;SDS011;4998;51.024;13.828;2024-03-22T03:09:19;9.67;;;7.70;;
9918;SDS011;4998;51.024;13.828;2024-03-22T03:11:46;11.87;;;7.73;;
9918;SDS011;4998;51.024;13.828;2024-03-22T03:14:12;10.43;;;7.87;;
9918;SDS011;4998;51.024;13.828;2024-03-22T03:16:40;10.10;;;7.10;;
9918;SDS011;4998;51.024;13.828;2024-03-22T03:19:06;8.30;;;7.20;;
9918;SDS011;4998;51.024;13.828;2024-03-22T03:21:33;10.43;;;8.33;;
9918;SDS011;4998;51.024;13.828;2024-03-22T03:23:59;10.23;;;8.43;;
9918;SDS011;4998;51.024;13.828;2024-03-22T03:26:26;10.40;;;8.27;;
9918;SDS011;4998;51.024;13.828;2024-03-22T03:28:52;9.00;;;7.30;;
9918;SDS011;4998;51.024;13.828;2024-03-22T03:31:20;9.90;;;7.60;;
9918;SDS011;4998;51.024;13.828;2024-03-22T03:33:47;8.37;;;7.43;;
9918;SDS011;4998;51.024;13.828;2024-03-22T03:36:14;9.90;;;7.77;;
9918;SDS011;4998;51.024;13.828;2024-03-22T03:38:40;10.00;;;7.90;;
9918;SDS011;4998;51.024;13.828;2024-03-22T03:41:07;13.63;;;7.60;;
9918;SDS011;4998;51.024;13.828;2024-03-22T03:43:34;9.33;;;7.50;;
9918;SDS011;4998;51.024;13.828;2024-03-22T03:46:01;10.03;;;7.20;;
9918;SDS011;4998;51.024;13.828;2024-03-22T03:48:27;9.47;;;8.03;;
9918;SDS011;4998;51.024;13.828;2024-03-22T03:50:56;8.80;;;7.13;;
9918;SDS011;4998;51.024;13.828;2024-03-22T03:53:24;8.37;;;6.70;;
9918;SDS011;4998;51.024;13.828;2024-03-22T03:55:51;8.20;;;6.60;;
9918;SDS011;4998;51.024;13.828;2024-03-22T03:58:17;9.63;;;7.50;;
9918;SDS011;4998;51.024;13.828;2024-03-22T04:00:44;8.80;;;7.07;;
9918;SDS011;4998;51.024;13.828;2024-03-22T04:03:10;8.23;;;7.00;;
9918;SDS011;4998;51.024;13.828;2024-03-22T04:05:37;9.70;;;7.23;;
9918;SDS011;4998;51.024;13.828;2024-03-22T04:08:05;8.27;;;6.90;;
9918;SDS011;4998;51.024;13.828;2024-03-22T04:10:32;10.40;;;7.70;;
9918;SDS011;4998;51.024;13.828;2024-03-22T04:12:58;8.53;;;7.10;;
9918;SDS011;4998;51.024;13.828;2024-03-22T04:15:25;9.20;;;7.83;;
9918;SDS011;4998;51.024;13.828;2024-03-22T04:17:51;7.87;;;6.90;;
9918;SDS011;4998;51.024;13.828;2024-03-22T04:20:18;10.50;;;7.93;;
9918;SDS011;4998;51.024;13.828;2024-03-22T04:22:44;9.70;;;8.10;;
9918;SDS011;4998;51.024;13.828;2024-03-22T04:25:15;9.63;;;7.90;;
9918;SDS011;4998;51.024;13.828;2024-03-22T04:27:41;11.03;;;8.80;;
9918;SDS011;4998;51.024;13.828;2024-03-22T04:30:09;9.40;;;8.10;;
9918;SDS011;4998;51.024;13.828;2024-03-22T04:32:36;8.80;;;7.50;;
9918;SDS011;4998;51.024;13.828;2024-03-22T04:35:03;9.40;;;7.53;;
9918;SDS011;4998;51.024;13.828;2024-03-22T04:37:29;8.90;;;7.50;;
9918;SDS011;4998;51.024;13.828;2024-03-22T04:39:56;10.27;;;8.23;;
9918;SDS011;4998;51.024;13.828;2024-03-22T04:42:24;9.93;;;8.37;;
9918;SDS011;4998;51.024;13.828;2024-03-22T04:44:51;10.23;;;7.53;;
9918;SDS011;4998;51.024;13.828;2024-03-22T04:47:18;13.10;;;7.87;;
9918;SDS011;4998;51.024;13.828;2024-03-22T04:49:44;9.37;;;7.73;;
9918;SDS011;4998;51.024;13.828;2024-03-22T04:52:11;11.33;;;7.80;;
9918;SDS011;4998;51.024;13.828;2024-03-22T04:54:37;9.80;;;7.30;;
9918;SDS011;4998;51.024;13.828;2024-03-22T04:57:04;10.50;;;8.20;;
9918;SDS011;4998;51.024;13.828;2024-03-22T04:59:31;10.00;;;8.50;;
9918;SDS011;4998;51.024;13.828;2024-03-22T05:01:58;8.37;;;6.33;;
9918;SDS011;4998;51.024;13.828;2024-03-22T05:04:25;10.53;;;7.67;;
9918;SDS011;4998;51.024;13.828;2024-03-22T05:06:52;9.97;;;7.50;;
9918;SDS011;4998;51.024;13.828;2024-03-22T05:09:18;10.57;;;7.87;;
9918;SDS011;4998;51.024;13.828;2024-03-22T05:11:44;10.83;;;7.40;;
9918;SDS011;4998;51.024;13.828;2024-03-22T05:14:15;9.40;;;7.60;;
9918;SDS011;4998;51.024;13.828;2024-03-22T05:16:43;9.13;;;8.13;;
9918;SDS011;4998;51.024;13.828;2024-03-22T05:19:09;10.40;;;8.63;;
9918;SDS011;4998;51.024;13.828;2024-03-22T05:21:36;10.83;;;8.57;;
9918;SDS011;4998;51.024;13.828;2024-03-22T05:24:03;12.67;;;8.73;;
9918;SDS011;4998;51.024;13.828;2024-03-22T05:26:30;10.60;;;8.67;;
9918;SDS011;4998;51.024;13.828;2024-03-22T05:29:01;11.67;;;9.13;;
9918;SDS011;4998;51.024;13.828;2024-03-22T05:31:29;10.90;;;8.50;;
9918;SDS011;4998;51.024;13.828;2024-03-22T05:33:57;11.67;;;9.47;;
9918;SDS011;4998;51.024;13.828;2024-03-22T05:36:24;11.57;;;9.30;;
9918;SDS011;4998;51.024;13.828;2024-03-22T05:38:51;10.97;;;8.97;;
9918;SDS011;4998;51.024;13.828;2024-03-22T05:41:18;13.27;;;8.97;;
9918;SDS011;4998;51.024;13.828;2024-03-22T05:43:44;10.70;;;8.57;;
9918;SDS011;4998;51.024;13.828;2024-03-22T05:46:11;11.63;;;8.70;;
9918;SDS011;4998;51.024;13.828;2024-03-22T05:48:37;13.40;;;10.60;;
9918;SDS011;4998;51.024;13.828;2024-03-22T05:51:06;15.53;;;12.13;;
9918;SDS011;4998;51.024;13.828;2024-03-22T05:53:33;12.80;;;10.03;;
9918;SDS011;4998;51.024;13.828;2024-03-22T05:56:01;13.30;;;10.37;;
9918;SDS011;4998;51.024;13.828;2024-03-22T05:58:27;11.03;;;9.13;;
9918;SDS011;4998;51.024;13.828;2024-03-22T06:00:54;15.03;;;10.47;;
9918;SDS011;4998;51.024;13.828;2024-03-22T06:03:22;12.73;;;10.17;;
9918;SDS011;4998;51.024;13.828;2024-03-22T06:05:49;10.27;;;7.93;;
9918;SDS011;4998;51.024;13.828;2024-03-22T06:08:21;11.67;;;9.20;;
9918;SDS011;4998;51.024;13.828;2024-03-22T06:10:48;11.30;;;9.20;;
9918;SDS011;4998;51.024;13.828;2024-03-22T06:13:14;11.77;;;8.90;;
9918;SDS011;4998;51.024;13.828;2024-03-22T06:15:42;11.37;;;8.90;;
9918;SDS011;4998;51.024;13.828;2024-03-22T06:18:10;11.30;;;8.17;;
9918;SDS011;4998;51.024;13.828;2024-03-22T06:20:37;10.80;;;8.40;;
9918;SDS011;4998;51.024;13.828;2024-03-22T06:23:05;10.63;;;8.57;;
9918;SDS011;4998;51.024;13.828;2024-03-22T06:25:33;9.57;;;8.53;;
9918;SDS011;4998;51.024;13.828;2024-03-22T06:27:59;11.67;;;8.80;;
9918;SDS011;4998;51.024;13.828;2024-03-22T06:30:26;10.10;;;8.53;;
9918;SDS011;4998;51.024;13.828;2024-03-22T06:32:52;10.17;;;7.90;;
9918;SDS011;4998;51.024;13.828;2024-03-22T06:35:20;10.20;;;8.80;;
9918;SDS011;4998;51.024;13.828;2024-03-22T06:37:46;10.23;;;8.40;;
9918;SDS011;4998;51.024;13.828;2024-03-22T06:40:13;10.50;;;7.93;;
9918;SDS011;4998;51.024;13.828;2024-03-22T06:42:41;10.80;;;7.73;;
9918;SDS011;4998;51.024;13.828;2024-03-22T06:45:09;10.70;;;8.10;;
9918;SDS011;4998;51.024;13.828;2024-03-22T06:47:35;8.23;;;7.40;;
9918;SDS011;4998;51.024;13.828;2024-03-22T06:50:03;9.20;;;7.90;;
9918;SDS011;4998;51.024;13.828;2024-03-22T06:52:29;9.27;;;8.10;;
9918;SDS011;4998;51.024;13.828;2024-03-22T06:54:56;7.90;;;6.73;;
9918;SDS011;4998;51.024;13.828;2024-03-22T06:57:22;9.20;;;6.53;;
9918;SDS011;4998;51.024;13.828;2024-03-22T06:59:50;8.67;;;7.30;;
9918;SDS011;4998;51.024;13.828;2024-03-22T07:02:16;9.43;;;6.67;;
9918;SDS011;4998;51.024;13.828;2024-03-22T07:04:43;8.43;;;6.83;;
9918;SDS011;4998;51.024;13.828;2024-03-22T07:07:09;7.97;;;6.50;;
9918;SDS011;4998;51.024;13.828;2024-03-22T07:09:37;8.80;;;6.50;;
9918;SDS011;4998;51.024;13.828;2024-03-22T07:12:03;7.03;;;6.03;;
9918;SDS011;4998;51.024;13.828;2024-03-22T07:14:30;10.50;;;6.77;;
9918;SDS011;4998;51.024;13.828;2024-03-22T07:16:57;8.17;;;6.63;;
9918;SDS011;4998;51.024;13.828;2024-03-22T07:19:24;8.20;;;6.90;;
9918;SDS011;4998;51.024;13.828;2024-03-22T07:21:51;9.97;;;6.73;;
9918;SDS011;4998;51.024;13.828;2024-03-22T07:24:18;6.80;;;6.03;;
9918;SDS011;4998;51.024;13.828;2024-03-22T07:26:44;9.90;;;6.63;;
9918;SDS011;4998;51.024;13.828;2024-03-22T07:29:11;7.33;;;6.20;;
9918;SDS011;4998;51.024;13.828;2024-03-22T07:31:37;6.70;;;6.03;;
9918;SDS011;4998;51.024;13.828;2024-03-22T07:34:06;7.60;;;5.97;;
9918;SDS011;4998;51.024;13.828;2024-03-22T07:36:36;8.20;;;5.60;;
9918;SDS011;4998;51.024;13.828;2024-03-22T07:39:03;8.27;;;5.10;;
9918;SDS011;4998;51.024;13.828;2024-03-22T07:41:31;7.03;;;5.53;;
9918;SDS011;4998;51.024;13.828;2024-03-22T07:43:58;6.57;;;5.53;;
9918;SDS011;4998;51.024;13.828;2024-03-22T07:46:25;6.13;;;5.53;;
9918;SDS011;4998;51.024;13.828;2024-03-22T07:48:52;6.40;;;5.20;;
9918;SDS011;4998;51.024;13.828;2024-03-22T07:51:20;6.87;;;5.30;;
9918;SDS011;4998;51.024;13.828;2024-03-22T07:53:47;6.33;;;5.53;;
9918;SDS011;4998;51.024;13.828;2024-03-22T07:56:13;7.33;;;5.80;;
9918;SDS011;4998;51.024;13.828;2024-03-22T07:58:41;6.30;;;4.83;;
9918;SDS011;4998;51.024;13.828;2024-03-22T08:01:08;6.20;;;5.00;;
9918;SDS011;4998;51.024;13.828;2024-03-22T08:03:35;5.43;;;4.90;;
9918;SDS011;4998;51.024;13.828;2024-03-22T08:06:01;6.40;;;5.53;;
9918;SDS011;4998;51.024;13.828;2024-03-22T08:08:30;5.83;;;5.27;;
9918;SDS011;4998;51.024;13.828;2024-03-22T08:10:56;7.97;;;5.70;;
9918;SDS011;4998;51.024;13.828;2024-03-22T08:13:23;8.57;;;5.40;;
9918;SDS011;4998;51.024;13.828;2024-03-22T08:15:49;7.73;;;6.10;;
9918;SDS011;4998;51.024;13.828;2024-03-22T08:18:16;6.90;;;5.67;;
9918;SDS011;4998;51.024;13.828;2024-03-22T08:20:42;12.60;;;5.87;;
9918;SDS011;4998;51.024;13.828;2024-03-22T08:23:09;6.60;;;5.30;;
9918;SDS011;4998;51.024;13.828;2024-03-22T08:25:37;7.97;;;5.47;;
9918;SDS011;4998;51.024;13.828;2024-03-22T08:28:04;7.60;;;6.30;;
9918;SDS011;4998;51.024;13.828;2024-03-22T08:30:30;9.80;;;6.63;;
9918;SDS011;4998;51.024;13.828;2024-03-22T08:32:58;9.70;;;6.93;;
9918;SDS011;4998;51.024;13.828;2024-03-22T08:35:24;9.90;;;7.17;;
9918;SDS011;4998;51.024;13.828;2024-03-22T08:37:51;8.97;;;7.00;;
9918;SDS011;4998;51.024;13.828;2024-03-22T08:40:17;8.97;;;6.73;;
9918;SDS011;4998;51.024;13.828;2024-03-22T08:42:45;8.67;;;6.60;;
9918;SDS011;4998;51.024;13.828;2024-03-22T08:45:11;9.63;;;6.77;;
9918;SDS011;4998;51.024;13.828;2024-03-22T08:47:38;7.70;;;6.60;;
9918;SDS011;4998;51.024;13.828;2024-03-22T08:50:05;9.80;;;6.87;;
9918;SDS011;4998;51.024;13.828;2024-03-22T08:52:32;7.80;;;6.17;;
9918;SDS011;4998;51.024;13.828;2024-03-22T08:55:00;8.60;;;6.70;;
9918;SDS011;4998;51.024;13.828;2024-03-22T08:57:29;7.43;;;6.20;;
9918;SDS011;4998;51.024;13.828;2024-03-22T08:59:57;7.83;;;6.23;;
9918;SDS011;4998;51.024;13.828;2024-03-22T09:02:24;7.87;;;6.27;;
9918;SDS011;4998;51.024;13.828;2024-03-22T09:04:50;9.03;;;6.03;;
9918;SDS011;4998;51.024;13.828;2024-03-22T09:07:18;9.83;;;6.03;;
9918;SDS011;4998;51.024;13.828;2024-03-22T09:09:44;8.10;;;5.70;;
9918;SDS011;4998;51.024;13.828;2024-03-22T09:12:11;7.80;;;6.10;;
9918;SDS011;4998;51.024;13.828;2024-03-22T09:14:37;6.10;;;5.33;;
9918;SDS011;4998;51.024;13.828;2024-03-22T09:17:06;10.17;;;5.70;;
9918;SDS011;4998;51.024;13.828;2024-03-22T09:19:32;7.40;;;5.83;;
9918;SDS011;4998;51.024;13.828;2024-03-22T09:21:59;6.40;;;4.93;;
9918;SDS011;4998;51.024;13.828;2024-03-22T09:24:25;6.67;;;5.50;;
9918;SDS011;4998;51.024;13.828;2024-03-22T09:26:52;7.80;;;5.23;;
9918;SDS011;4998;51.024;13.828;2024-03-22T09:29:19;5.57;;;4.93;;
9918;SDS011;4998;51.024;13.828;2024-03-22T09:31:46;5.90;;;4.83;;
9918;SDS011;4998;51.024;13.828;2024-03-22T09:34:13;5.13;;;4.27;;
9918;SDS011;4998;51.024;13.828;2024-03-22T09:36:41;7.80;;;4.60;;
9918;SDS011;4998;51.024;13.828;2024-03-22T09:39:07;6.83;;;4.43;;
9918;SDS011;4998;51.024;13.828;2024-03-22T09:41:34;5.97;;;4.90;;
9918;SDS011;4998;51.024;13.828;2024-03-22T09:44:06;8.83;;;4.80;;
9918;SDS011;4998;51.024;13.828;2024-03-22T09:46:38;7.13;;;4.67;;
9918;SDS011;4998;51.024;13.828;2024-03-22T09:49:05;4.37;;;3.97;;
9918;SDS011;4998;51.024;13.828;2024-03-22T09:51:34;5.37;;;4.17;;
9918;SDS011;4998;51.024;13.828;2024-03-22T09:54:02;5.10;;;4.20;;
9918;SDS011;4998;51.024;13.828;2024-03-22T09:56:30;5.57;;;3.80;;
9918;SDS011;4998;51.024;13.828;2024-03-22T09:58:56;4.83;;;3.90;;
9918;SDS011;4998;51.024;13.828;2024-03-22T10:01:23;5.60;;;3.73;;
9918;SDS011;4998;51.024;13.828;2024-03-22T10:03:50;4.73;;;3.47;;
9918;SDS011;4998;51.024;13.828;2024-03-22T10:06:18;3.67;;;3.33;;
9918;SDS011;4998;51.024;13.828;2024-03-22T10:08:45;4.90;;;3.63;;
9918;SDS011;4998;51.024;13.828;2024-03-22T10:11:12;4.30;;;3.50;;
9918;SDS011;4998;51.024;13.828;2024-03-22T10:13:39;4.90;;;3.43;;
9918;SDS011;4998;51.024;13.828;2024-03-22T10:16:06;3.47;;;3.10;;
9918;SDS011;4998;51.024;13.828;2024-03-22T10:18:32;4.40;;;3.57;;
9918;SDS011;4998;51.024;13.828;2024-03-22T10:21:00;4.37;;;3.40;;
9918;SDS011;4998;51.024;13.828;2024-03-22T10:23:26;3.70;;;3.27;;
9918;SDS011;4998;51.024;13.828;2024-03-22T10:25:55;4.40;;;3.40;;
9918;SDS011;4998;51.024;13.828;2024-03-22T10:28:21;3.00;;;2.70;;
9918;SDS011;4998;51.024;13.828;2024-03-22T10:30:50;3.40;;;2.70;;
9918;SDS011;4998;51.024;13.828;2024-03-22T10:33:18;2.90;;;2.70;;
9918;SDS011;4998;51.024;13.828;2024-03-22T10:35:47;5.60;;;2.63;;
9918;SDS011;4998;51.024;13.828;2024-03-22T10:38:17;5.90;;;5.40;;
9918;SDS011;4998;51.024;13.828;2024-03-22T10:40:46;3.20;;;2.90;;
9918;SDS011;4998;51.024;13.828;2024-03-22T10:43:14;3.40;;;3.10;;
9918;SDS011;4998;51.024;13.828;2024-03-22T10:45:41;3.40;;;3.10;;
9918;SDS011;4998;51.024;13.828;2024-03-22T10:48:08;3.43;;;2.57;;
9918;SDS011;4998;51.024;13.828;2024-03-22T10:50:38;3.10;;;2.77;;
9918;SDS011;4998;51.024;13.828;2024-03-22T10:53:06;3.13;;;2.83;;
9918;SDS011;4998;51.024;13.828;2024-03-22T10:55:40;3.60;;;3.27;;
9918;SDS011;4998;51.024;13.828;2024-03-22T10:58:15;3.03;;;2.73;;
9918;SDS011;4998;51.024;13.828;2024-03-22T11:00:43;2.40;;;2.20;;
9918;SDS011;4998;51.024;13.828;2024-03-22T11:03:09;3.23;;;2.30;;
9918;SDS011;4998;51.024;13.828;2024-03-22T11:05:44;2.87;;;2.57;;
9918;SDS011;4998;51.024;13.828;2024-03-22T11:08:10;3.73;;;2.70;;
9918;SDS011;4998;51.024;13.828;2024-03-22T11:10:38;5.53;;;2.93;;
9918;SDS011;4998;51.024;13.828;2024-03-22T11:13:05;2.70;;;2.50;;
9918;SDS011;4998;51.024;13.828;2024-03-22T11:15:36;2.60;;;2.40;;
9918;SDS011;4998;51.024;13.828;2024-03-22T11:18:02;2.73;;;2.50;;
9918;SDS011;4998;51.024;13.828;2024-03-22T11:20:29;3.43;;;2.40;;
9918;SDS011;4998;51.024;13.828;2024-03-22T11:22:56;4.27;;;2.93;;
9918;SDS011;4998;51.024;13.828;2024-03-22T11:25:23;5.10;;;2.80;;
9918;SDS011;4998;51.024;13.828;2024-03-22T11:27:49;3.50;;;2.73;;
9918;SDS011;4998;51.024;13.828;2024-03-22T11:30:16;2.77;;;2.57;;
9918;SDS011;4998;51.024;13.828;2024-03-22T11:32:43;2.37;;;2.17;;
9918;SDS011;4998;51.024;13.828;2024-03-22T11:35:10;2.63;;;2.30;;
9918;SDS011;4998;51.024;13.828;2024-03-22T11:37:38;2.80;;;2.47;;
9918;SDS011;4998;51.024;13.828;2024-03-22T11:40:06;2.70;;;2.30;;
9918;SDS011;4998;51.024;13.828;2024-03-22T11:42:35;3.50;;;2.40;;
9918;SDS011;4998;51.024;13.828;2024-03-22T11:45:03;4.50;;;3.10;;
9918;SDS011;4998;51.024;13.828;2024-03-22T11:47:31;3.30;;;2.90;;
9918;SDS011;4998;51.024;13.828;2024-03-22T11:50:01;4.20;;;2.30;;
9918;SDS011;4998;51.024;13.828;2024-03-22T11:52:27;3.17;;;2.87;;
9918;SDS011;4998;51.024;13.828;2024-03-22T11:54:54;2.60;;;2.40;;
9918;SDS011;4998;51.024;13.828;2024-03-22T11:57:21;3.40;;;2.37;;
9918;SDS011;4998;51.024;13.828;2024-03-22T11:59:48;3.80;;;2.80;;
9918;SDS011;4998;51.024;13.828;2024-03-22T12:02:14;4.00;;;2.67;;
9918;SDS011;4998;51.024;13.828;2024-03-22T12:04:41;3.20;;;2.40;;
9918;SDS011;4998;51.024;13.828;2024-03-22T12:07:10;2.60;;;2.40;;
9918;SDS011;4998;51.024;13.828;2024-03-22T12:09:39;3.60;;;2.73;;
9918;SDS011;4998;51.024;13.828;2024-03-22T12:12:06;2.70;;;2.50;;
9918;SDS011;4998;51.024;13.828;2024-03-22T12:14:35;2.70;;;2.50;;
9918;SDS011;4998;51.024;13.828;2024-03-22T12:17:01;9.90;;;2.93;;
9918;SDS011;4998;51.024;13.828;2024-03-22T12:19:28;3.70;;;2.80;;
9918;SDS011;4998;51.024;13.828;2024-03-22T12:21:54;2.60;;;2.40;;
9918;SDS011;4998;51.024;13.828;2024-03-22T12:24:24;3.03;;;2.70;;
9918;SDS011;4998;51.024;13.828;2024-03-22T12:26:50;2.60;;;2.40;;
9918;SDS011;4998;51.024;13.828;2024-03-22T12:29:18;2.60;;;2.40;;
9918;SDS011;4998;51.024;13.828;2024-03-22T12:31:44;3.83;;;3.00;;
9918;SDS011;4998;51.024;13.828;2024-03-22T12:34:12;3.00;;;2.60;;
9918;SDS011;4998;51.024;13.828;2024-03-22T12:36:38;2.93;;;2.63;;
9918;SDS011;4998;51.024;13.828;2024-03-22T12:39:05;3.40;;;2.70;;
9918;SDS011;4998;51.024;13.828;2024-03-22T12:41:33;4.70;;;3.00;;
9918;SDS011;4998;51.024;13.828;2024-03-22T12:44:00;4.40;;;3.10;;
9918;SDS011;4998;51.024;13.828;2024-03-22T12:46:26;3.80;;;3.23;;
9918;SDS011;4998;51.024;13.828;2024-03-22T12:48:53;4.23;;;3.40;;
9918;SDS011;4998;51.024;13.828;2024-03-22T12:51:19;3.00;;;2.70;;
9918;SDS011;4998;51.024;13.828;2024-03-22T12:53:46;3.33;;;3.03;;
9918;SDS011;4998;51.024;13.828;2024-03-22T12:56:13;2.97;;;2.67;;
9918;SDS011;4998;51.024;13.828;2024-03-22T12:58:41;6.23;;;3.37;;
9918;SDS011;4998;51.024;13.828;2024-03-22T13:01:07;4.17;;;3.10;;
9918;SDS011;4998;51.024;13.828;2024-03-22T13:03:36;6.40;;;3.10;;
9918;SDS011;4998;51.024;13.828;2024-03-22T13:06:02;3.30;;;3.00;;
9918;SDS011;4998;51.024;13.828;2024-03-22T13:08:30;2.73;;;2.53;;
9918;SDS011;4998;51.024;13.828;2024-03-22T13:10:56;4.30;;;2.97;;
9918;SDS011;4998;51.024;13.828;2024-03-22T13:13:23;3.03;;;2.73;;
9918;SDS011;4998;51.024;13.828;2024-03-22T13:15:51;4.90;;;2.87;;
9918;SDS011;4998;51.024;13.828;2024-03-22T13:18:18;2.77;;;2.43;;
9918;SDS011;4998;51.024;13.828;2024-03-22T13:20:46;3.67;;;2.90;;
9918;SDS011;4998;51.024;13.828;2024-03-22T13:23:13;3.33;;;3.03;;
9918;SDS011;4998;51.024;13.828;2024-03-22T13:25:39;3.90;;;2.97;;
9918;SDS011;4998;51.024;13.828;2024-03-22T13:28:07;4.50;;;3.23;;
9918;SDS011;4998;51.024;13.828;2024-03-22T13:30:33;4.40;;;3.23;;
9918;SDS011;4998;51.024;13.828;2024-03-22T13:33:04;3.63;;;2.80;;
9918;SDS011;4998;51.024;13.828;2024-03-22T13:35:30;3.10;;;2.80;;
9918;SDS011;4998;51.024;13.828;2024-03-22T13:37:58;3.03;;;2.70;;
9918;SDS011;4998;51.024;13.828;2024-03-22T13:40:25;3.70;;;2.93;;
9918;SDS011;4998;51.024;13.828;2024-03-22T13:42:53;3.30;;;3.00;;
9918;SDS011;4998;51.024;13.828;2024-03-22T13:45:19;2.93;;;2.63;;
9918;SDS011;4998;51.024;13.828;2024-03-22T13:47:46;2.80;;;2.60;;
9918;SDS011;4998;51.024;13.828;2024-03-22T13:50:14;3.00;;;2.50;;
9918;SDS011;4998;51.024;13.828;2024-03-22T13:52:41;3.00;;;2.70;;
9918;SDS011;4998;51.024;13.828;2024-03-22T13:55:08;4.03;;;2.70;;
9918;SDS011;4998;51.024;13.828;2024-03-22T13:57:35;3.70;;;3.30;;
9918;SDS011;4998;51.024;13.828;2024-03-22T14:00:01;3.60;;;3.20;;
9918;SDS011;4998;51.024;13.828;2024-03-22T14:02:32;5.90;;;4.23;;
9918;SDS011;4998;51.024;13.828;2024-03-22T14:04:58;4.10;;;3.70;;
9918;SDS011;4998;51.024;13.828;2024-03-22T14:07:26;5.50;;;3.70;;
9918;SDS011;4998;51.024;13.828;2024-03-22T14:09:52;3.90;;;3.27;;
9918;SDS011;4998;51.024;13.828;2024-03-22T14:12:19;3.57;;;3.23;;
9918;SDS011;4998;51.024;13.828;2024-03-22T14:14:45;3.97;;;3.60;;
9918;SDS011;4998;51.024;13.828;2024-03-22T14:17:13;4.03;;;3.47;;
9918;SDS011;4998;51.024;13.828;2024-03-22T14:19:39;3.83;;;3.40;;
9918;SDS011;4998;51.024;13.828;2024-03-22T14:22:07;5.10;;;4.00;;
9918;SDS011;4998;51.024;13.828;2024-03-22T14:24:34;4.50;;;3.90;;
9918;SDS011;4998;51.024;13.828;2024-03-22T14:27:01;3.93;;;3.53;;
9918;SDS011;4998;51.024;13.828;2024-03-22T14:29:28;3.30;;;3.00;;
9918;SDS011;4998;51.024;13.828;2024-03-22T14:31:55;3.07;;;2.77;;
9918;SDS011;4998;51.024;13.828;2024-03-22T14:34:21;5.00;;;3.93;;
9918;SDS011;4998;51.024;13.828;2024-03-22T14:36:48;3.87;;;3.40;;
9918;SDS011;4998;51.024;13.828;2024-03-22T14:39:14;11.43;;;4.00;;
9918;SDS011;4998;51.024;13.828;2024-03-22T14:41:42;7.57;;;3.90;;
9918;SDS011;4998;51.024;13.828;2024-03-22T14:44:08;5.53;;;3.67;;
9918;SDS011;4998;51.024;13.828;2024-03-22T14:46:35;4.10;;;3.70;;
9918;SDS011;4998;51.024;13.828;2024-03-22T14:49:01;4.20;;;3.80;;
9918;SDS011;4998;51.024;13.828;2024-03-22T14:51:28;4.37;;;3.60;;
9918;SDS011;4998;51.024;13.828;2024-03-22T14:53:54;3.80;;;3.50;;
9918;SDS011;4998;51.024;13.828;2024-03-22T14:56:22;5.13;;;3.80;;